X  Close Metar Aviation Weather Data     EGGW London Luton Airport
Temperature
13°C Temperature
7°C Dewpoint
67% Humidity



Wind
18 MPH
29 KM/H
8 M/S
16 KTS



250°
WSW
Current Conditions

Clear Clear
Pressure 1017.92 (hPa) - 30.06 (inHg)
Visibility 6.2 (mile) - 10 (km)
Airport
Airport-code EGGW

Location: London Luton Airport
Distance: 18 (mi)

Metar:
EGGW 202050Z AUTO 25016KT 9999 NCD 13/07 Q1018

Time: 20-05-2022 21:50 BST